createdAt,value
2019-02-06T00:02:06.206Z,63.25
2019-02-06T00:04:32.630Z,63.73
2019-02-06T00:06:59.134Z,63.60
2019-02-06T00:09:25.803Z,63.35
2019-02-06T00:11:52.172Z,64.10
2019-02-06T00:14:18.505Z,64.25
2019-02-06T00:16:44.952Z,64.38
2019-02-06T00:19:11.628Z,64.38
2019-02-06T00:21:38.277Z,64.14
2019-02-06T00:24:04.722Z,64.26
2019-02-06T00:26:31.333Z,64.36
2019-02-06T00:28:58.012Z,64.02
2019-02-06T00:31:24.339Z,64.45
2019-02-06T00:33:50.657Z,64.41
2019-02-06T00:36:18.261Z,63.50
2019-02-06T00:38:44.585Z,63.25
2019-02-06T00:41:10.958Z,63.73
2019-02-06T00:43:37.544Z,64.07
2019-02-06T00:46:04.509Z,64.58
2019-02-06T00:48:31.202Z,64.70
2019-02-06T00:50:57.827Z,64.88
2019-02-06T00:53:24.157Z,65.20
2019-02-06T00:55:50.487Z,65.33
2019-02-06T00:58:17.084Z,65.27
2019-02-06T01:00:43.709Z,64.76
2019-02-06T01:03:10.324Z,64.82
2019-02-06T01:05:38.683Z,64.28
2019-02-06T01:08:06.158Z,64.18
2019-02-06T01:10:33.494Z,64.06
2019-02-06T01:13:00.028Z,64.33
2019-02-06T01:15:26.611Z,64.04
2019-02-06T01:17:53.616Z,64.44
2019-02-06T01:20:19.953Z,64.60
2019-02-06T01:22:46.289Z,64.73
2019-02-06T01:25:15.518Z,64.63
2019-02-06T01:27:42.302Z,65.12
2019-02-06T01:30:21.619Z,65.08
2019-02-06T01:32:48.238Z,65.10
2019-02-06T01:35:15.327Z,64.39
2019-02-06T01:37:41.682Z,64.56
2019-02-06T01:40:12.447Z,64.83
2019-02-06T01:42:39.044Z,64.73
2019-02-06T01:45:12.484Z,65.10
2019-02-06T01:47:39.147Z,65.31
2019-02-06T01:50:10.238Z,65.78
2019-02-06T01:52:37.221Z,65.97
2019-02-06T01:55:07.632Z,65.61
2019-02-06T01:57:34.204Z,65.52
2019-02-06T02:00:00.798Z,65.65
2019-02-06T02:02:27.389Z,64.82
2019-02-06T02:04:53.984Z,64.63
2019-02-06T02:07:20.583Z,64.47
2019-02-06T02:09:47.312Z,62.31
2019-02-06T02:12:13.637Z,63.00
2019-02-06T02:14:39.975Z,63.44
2019-02-06T02:17:06.571Z,63.24
2019-02-06T02:19:32.879Z,63.45
2019-02-06T02:21:59.191Z,62.97
2019-02-06T02:24:25.505Z,62.65
2019-02-06T02:26:51.851Z,63.42
2019-02-06T02:29:18.458Z,63.56
2019-02-06T02:31:45.072Z,64.12
2019-02-06T02:34:11.408Z,64.56
2019-02-06T02:36:37.964Z,65.01
2019-02-06T02:39:05.604Z,65.36
2019-02-06T02:41:34.096Z,64.91
2019-02-06T02:44:00.442Z,65.06
2019-02-06T02:46:26.767Z,65.18
2019-02-06T02:48:53.682Z,65.33
2019-02-06T02:51:19.991Z,65.50
2019-02-06T02:53:46.399Z,65.32
2019-02-06T02:56:12.728Z,65.62
2019-02-06T02:58:39.071Z,65.51
2019-02-06T03:01:13.196Z,65.12
2019-02-06T03:03:41.509Z,64.70
2019-02-06T03:06:08.139Z,64.94
2019-02-06T03:08:34.738Z,64.97
2019-02-06T03:11:02.424Z,64.37
2019-02-06T03:13:28.745Z,64.93
2019-02-06T03:15:55.088Z,64.94
2019-02-06T03:18:21.449Z,65.40
2019-02-06T03:20:47.788Z,65.58
2019-02-06T03:23:14.374Z,65.31
2019-02-06T03:25:41.019Z,65.33
2019-02-06T03:28:07.376Z,65.42
2019-02-06T03:30:33.931Z,65.72
2019-02-06T03:33:00.281Z,66.02
2019-02-06T03:35:26.832Z,65.50
2019-02-06T03:37:53.456Z,65.01
2019-02-06T03:40:20.033Z,64.93
2019-02-06T03:42:46.372Z,64.41
2019-02-06T03:45:13.289Z,64.23
2019-02-06T03:47:39.863Z,64.11
2019-02-06T03:50:16.965Z,63.98
2019-02-06T03:52:43.751Z,63.72
2019-02-06T03:55:11.674Z,63.97
2019-02-06T03:57:38.205Z,64.24
2019-02-06T04:00:14.546Z,64.21
2019-02-06T04:02:40.872Z,63.31
2019-02-06T04:05:09.868Z,63.38
2019-02-06T04:07:36.246Z,63.59
2019-02-06T04:10:08.171Z,63.55
2019-02-06T04:12:34.649Z,63.25
2019-02-06T04:15:01.226Z,63.24
2019-02-06T04:17:27.906Z,63.54
2019-02-06T04:19:54.200Z,64.09
2019-02-06T04:22:20.550Z,64.30
2019-02-06T04:24:47.137Z,64.78
2019-02-06T04:27:14.528Z,65.20
2019-02-06T04:29:40.861Z,65.17
2019-02-06T04:32:07.270Z,65.58
2019-02-06T04:34:33.894Z,65.72
2019-02-06T04:37:06.601Z,65.95
2019-02-06T04:39:28.926Z,66.29
2019-02-06T04:41:55.474Z,66.32
2019-02-06T04:44:22.098Z,65.88
2019-02-06T04:46:49.448Z,65.49
2019-02-06T04:49:16.053Z,65.58
2019-02-06T04:51:42.403Z,65.26
2019-02-06T04:54:08.805Z,64.81
2019-02-06T04:56:35.633Z,64.31
2019-02-06T04:59:02.049Z,63.80
2019-02-06T05:01:28.419Z,63.70
2019-02-06T05:03:55.064Z,63.06
2019-02-06T05:06:22.118Z,62.72
2019-02-06T05:08:48.462Z,62.67
2019-02-06T05:11:14.794Z,62.53
2019-02-06T05:13:41.354Z,62.19
2019-02-06T05:16:07.695Z,61.99
2019-02-06T05:18:34.051Z,62.37
2019-02-06T05:21:00.637Z,62.38
2019-02-06T05:23:27.325Z,61.68
2019-02-06T05:25:57.902Z,61.70
2019-02-06T05:28:24.356Z,62.06
2019-02-06T05:30:52.064Z,62.07
2019-02-06T05:33:18.440Z,61.59
2019-02-06T05:35:45.072Z,61.18
2019-02-06T05:38:11.435Z,61.36
2019-02-06T05:40:37.812Z,61.82
2019-02-06T05:43:04.265Z,61.88
2019-02-06T05:45:30.699Z,62.11
2019-02-06T05:47:57.276Z,62.07
2019-02-06T05:50:23.700Z,62.33
2019-02-06T05:52:50.051Z,62.29
2019-02-06T05:55:16.702Z,62.36
2019-02-06T05:57:43.806Z,62.19
2019-02-06T06:00:15.754Z,62.54
2019-02-06T06:02:42.083Z,62.69
2019-02-06T06:05:08.526Z,62.92
2019-02-06T06:07:44.592Z,62.79
2019-02-06T06:10:09.150Z,63.36
2019-02-06T06:12:35.691Z,63.54
2019-02-06T06:15:05.016Z,64.14
2019-02-06T06:17:31.356Z,64.38
2019-02-06T06:19:57.724Z,64.51
2019-02-06T06:22:24.046Z,64.40
2019-02-06T06:24:50.657Z,64.09
2019-02-06T06:27:17.267Z,63.85
2019-02-06T06:29:43.877Z,63.11
2019-02-06T06:32:10.238Z,63.09
2019-02-06T06:34:37.236Z,63.01
2019-02-06T06:37:03.607Z,63.14
2019-02-06T06:39:30.356Z,63.30
2019-02-06T06:41:56.722Z,63.30
2019-02-06T06:44:23.343Z,62.74
2019-02-06T06:46:49.714Z,62.55
2019-02-06T06:49:16.058Z,62.69
2019-02-06T06:51:42.359Z,63.15
2019-02-06T06:54:08.955Z,63.02
2019-02-06T06:56:35.257Z,63.11
2019-02-06T06:59:01.569Z,62.71
2019-02-06T07:01:27.927Z,62.96
2019-02-06T07:03:54.532Z,62.42
2019-02-06T07:06:21.140Z,62.34
2019-02-06T07:08:47.724Z,62.82
2019-02-06T07:11:14.371Z,63.28
2019-02-06T07:13:41.041Z,62.91
2019-02-06T07:16:07.552Z,62.79
2019-02-06T07:18:34.194Z,63.46
2019-02-06T07:21:01.599Z,63.83
2019-02-06T07:23:28.294Z,64.43
2019-02-06T07:25:54.625Z,64.64
2019-02-06T07:28:20.944Z,65.18
2019-02-06T07:30:47.245Z,65.47
2019-02-06T07:33:13.619Z,65.68
2019-02-06T07:35:40.534Z,65.41
2019-02-06T07:38:08.377Z,64.67
2019-02-06T07:40:34.733Z,64.03
2019-02-06T07:43:01.085Z,63.50
2019-02-06T07:45:27.747Z,62.69
2019-02-06T07:47:54.232Z,62.45
2019-02-06T07:50:24.822Z,62.31
2019-02-06T07:52:51.756Z,62.33
2019-02-06T07:55:18.109Z,62.16
2019-02-06T07:57:45.257Z,62.30
2019-02-06T08:00:18.253Z,62.21
2019-02-06T08:02:44.742Z,61.35
2019-02-06T08:05:18.050Z,61.20
2019-02-06T08:07:45.044Z,61.34
2019-02-06T08:10:19.833Z,61.13
2019-02-06T08:12:46.394Z,61.16
2019-02-06T08:15:16.191Z,60.49
2019-02-06T08:17:42.991Z,60.14
2019-02-06T08:20:19.515Z,59.71
2019-02-06T08:22:46.073Z,59.33
2019-02-06T08:25:15.890Z,58.70
2019-02-06T08:27:42.332Z,58.19
2019-02-06T08:30:24.733Z,57.30
2019-02-06T08:32:51.267Z,57.20
2019-02-06T08:35:17.702Z,57.05
2019-02-06T08:37:44.345Z,56.10
2019-02-06T08:40:15.832Z,56.19
2019-02-06T08:42:42.437Z,55.85
2019-02-06T08:45:15.311Z,55.67
2019-02-06T08:47:41.721Z,56.28
2019-02-06T08:50:12.828Z,56.01
2019-02-06T08:52:39.840Z,55.57
2019-02-06T08:55:11.420Z,55.94
2019-02-06T08:57:38.020Z,55.98
2019-02-06T09:00:10.248Z,55.55
2019-02-06T09:02:36.573Z,54.98
2019-02-06T09:05:07.621Z,54.26
2019-02-06T09:07:34.398Z,54.40
2019-02-06T09:10:03.770Z,54.10
2019-02-06T09:12:30.324Z,53.93
2019-02-06T09:14:56.662Z,53.68
2019-02-06T09:17:23.076Z,53.41
2019-02-06T09:19:49.712Z,53.94
2019-02-06T09:22:18.297Z,54.91
2019-02-06T09:24:44.912Z,54.39
2019-02-06T09:27:11.308Z,54.84
2019-02-06T09:29:38.001Z,54.35
2019-02-06T09:32:04.344Z,54.19
2019-02-06T09:34:30.987Z,52.91
2019-02-06T09:36:57.305Z,53.90
2019-02-06T09:39:23.675Z,53.88
2019-02-06T09:41:49.987Z,53.41
2019-02-06T09:44:16.574Z,53.24
2019-02-06T09:46:42.946Z,53.52
2019-02-06T09:49:09.963Z,53.22
2019-02-06T09:51:36.309Z,52.67
2019-02-06T09:54:02.748Z,52.68
2019-02-06T09:56:29.069Z,52.60
2019-02-06T09:58:55.659Z,52.21
2019-02-06T10:01:22.284Z,52.28
2019-02-06T10:03:48.608Z,52.02
2019-02-06T10:06:15.195Z,51.86
2019-02-06T10:08:41.496Z,52.55
2019-02-06T10:11:08.306Z,52.05
2019-02-06T10:13:34.888Z,51.75
2019-02-06T10:16:02.299Z,50.64
2019-02-06T10:18:28.612Z,51.65
2019-02-06T10:20:55.265Z,51.92
2019-02-06T10:23:21.851Z,51.64
2019-02-06T10:25:48.237Z,50.55
2019-02-06T10:28:16.250Z,50.09
2019-02-06T10:30:45.917Z,49.79
2019-02-06T10:33:12.291Z,50.12
2019-02-06T10:35:38.801Z,49.39
2019-02-06T10:38:05.763Z,49.55
2019-02-06T10:40:32.352Z,49.64
2019-02-06T10:42:59.029Z,48.76
2019-02-06T10:45:26.080Z,49.98
2019-02-06T10:47:52.884Z,49.03
2019-02-06T10:50:27.025Z,49.17
2019-02-06T10:52:54.611Z,49.24
2019-02-06T10:55:21.365Z,49.55
2019-02-06T10:57:48.107Z,48.83
2019-02-06T11:00:26.060Z,49.19
2019-02-06T11:02:52.993Z,49.03
2019-02-06T11:05:19.837Z,49.28
2019-02-06T11:07:46.403Z,49.05
2019-02-06T11:10:21.959Z,49.41
2019-02-06T11:12:48.662Z,49.31
2019-02-06T11:15:15.532Z,48.63
2019-02-06T11:17:42.262Z,48.85
2019-02-06T11:20:19.639Z,48.41
2019-02-06T11:22:46.475Z,48.36
2019-02-06T11:25:14.827Z,46.99
2019-02-06T11:27:41.404Z,45.98
2019-02-06T11:30:18.431Z,43.72
2019-02-06T11:32:45.396Z,41.02
2019-02-06T11:35:13.128Z,38.57
2019-02-06T11:37:39.548Z,35.91
2019-02-06T11:40:15.202Z,33.42
2019-02-06T11:42:41.376Z,31.27
2019-02-06T11:45:12.445Z,29.90
2019-02-06T11:47:39.013Z,27.98
2019-02-06T11:50:11.472Z,26.49
2019-02-06T11:52:37.798Z,26.89
2019-02-06T11:55:12.165Z,27.62
2019-02-06T11:57:38.489Z,26.14
2019-02-06T12:00:10.433Z,23.26
2019-02-06T12:02:37.636Z,22.33
2019-02-06T12:05:06.711Z,22.99
2019-02-06T12:07:33.444Z,21.79
2019-02-06T12:10:09.406Z,22.07
2019-02-06T12:12:28.243Z,22.64
2019-02-06T12:14:54.858Z,22.94
2019-02-06T12:17:21.212Z,22.36
2019-02-06T12:19:47.803Z,22.49
2019-02-06T12:22:14.851Z,21.49
2019-02-06T12:24:41.164Z,22.37
2019-02-06T12:27:07.922Z,21.55
2019-02-06T12:29:34.267Z,22.62
2019-02-06T12:32:01.058Z,22.01
2019-02-06T12:34:27.421Z,21.94
2019-02-06T12:36:54.002Z,22.55
2019-02-06T12:39:22.707Z,23.40
2019-02-06T12:41:48.605Z,22.92
2019-02-06T12:44:15.658Z,21.85
2019-02-06T12:46:42.388Z,20.99
2019-02-06T12:49:09.972Z,20.19
2019-02-06T12:51:36.568Z,20.18
2019-02-06T12:54:03.339Z,19.06
2019-02-06T12:56:29.850Z,18.82
2019-02-06T12:58:56.158Z,18.50
2019-02-06T13:01:23.482Z,19.44
2019-02-06T13:03:50.055Z,20.40
2019-02-06T13:06:16.696Z,20.21
2019-02-06T13:08:48.828Z,21.42
2019-02-06T13:11:15.850Z,22.45
2019-02-06T13:14:01.097Z,22.29
2019-02-06T13:16:32.016Z,22.21
2019-02-06T13:19:03.081Z,21.45
2019-02-06T13:21:29.818Z,20.93
2019-02-06T13:23:56.184Z,20.42
2019-02-06T13:26:22.541Z,19.26
2019-02-06T13:28:49.869Z,18.75
2019-02-06T13:31:16.303Z,20.33
2019-02-06T13:33:42.904Z,20.78
2019-02-06T13:36:12.409Z,22.25
2019-02-06T13:38:39.494Z,22.96
2019-02-06T13:41:06.067Z,23.66
2019-02-06T13:43:32.475Z,22.30
2019-02-06T13:45:58.893Z,20.32
2019-02-06T13:48:25.724Z,19.16
2019-02-06T13:50:52.198Z,18.70
2019-02-06T13:53:19.040Z,19.00
2019-02-06T13:55:45.744Z,18.67
2019-02-06T14:00:44.252Z,21.46
2019-02-06T14:03:13.669Z,21.84
2019-02-06T14:05:41.449Z,21.91
2019-02-06T14:08:13.719Z,22.03
2019-02-06T14:10:40.128Z,21.59
2019-02-06T14:13:07.140Z,20.83
2019-02-06T14:15:38.684Z,20.44
2019-02-06T14:18:05.353Z,20.02
2019-02-06T14:20:34.377Z,20.45
2019-02-06T14:23:09.704Z,21.11
2019-02-06T14:25:41.359Z,20.79
2019-02-06T14:28:44.524Z,19.78
2019-02-06T14:31:17.518Z,20.25
2019-02-06T14:34:13.411Z,21.35
2019-02-06T14:36:54.280Z,22.56
2019-02-06T14:39:26.334Z,23.86
2019-02-06T14:42:09.901Z,25.44
2019-02-06T14:45:21.540Z,26.70
2019-02-06T14:48:05.248Z,29.10
2019-02-06T14:50:37.854Z,26.50
2019-02-06T14:53:18.492Z,27.54
2019-02-06T14:55:53.688Z,31.55
2019-02-06T14:58:58.725Z,34.00
2019-02-06T15:01:54.524Z,37.00
2019-02-06T15:05:02.931Z,38.98
2019-02-06T15:07:42.208Z,41.18
2019-02-06T15:10:29.960Z,43.00
2019-02-06T15:13:07.886Z,43.31
2019-02-06T15:16:11.369Z,45.22
2019-02-06T15:18:46.130Z,45.05
2019-02-06T15:21:39.235Z,47.04
2019-02-06T15:24:29.760Z,48.26
2019-02-06T15:27:48.985Z,49.57
2019-02-06T15:30:34.152Z,49.65
2019-02-06T15:33:11.951Z,50.61
2019-02-06T15:35:57.913Z,51.78
2019-02-06T15:38:53.944Z,52.39
2019-02-06T15:41:54.018Z,52.36
2019-02-06T15:44:31.746Z,53.14
2019-02-06T15:47:33.376Z,53.18
2019-02-06T15:50:26.853Z,53.94
2019-02-06T15:53:04.265Z,54.83
2019-02-06T15:55:55.738Z,55.42
2019-02-06T15:58:33.378Z,55.92
2019-02-06T16:01:29.036Z,56.31
2019-02-06T16:04:21.126Z,56.58
2019-02-06T16:07:11.415Z,56.80
2019-02-06T16:09:49.210Z,56.99
2019-02-06T16:12:43.223Z,58.00
2019-02-06T16:15:20.967Z,57.62
2019-02-06T16:18:02.633Z,58.36
2019-02-06T16:20:49.709Z,59.06
2019-02-06T16:23:42.567Z,59.54
2019-02-06T16:26:56.758Z,60.02
2019-02-06T16:29:37.947Z,59.81
2019-02-06T16:32:27.999Z,59.91
2019-02-06T16:35:20.508Z,60.90
2019-02-06T16:38:31.483Z,60.81
2019-02-06T16:41:17.867Z,61.18
2019-02-06T16:43:52.895Z,60.94
2019-02-06T16:46:42.392Z,61.80
2019-02-06T16:49:26.426Z,61.46
2019-02-06T16:52:33.185Z,61.63
2019-02-06T16:55:21.993Z,62.07
2019-02-06T16:58:00.043Z,62.15
2019-02-06T17:01:17.333Z,62.41
2019-02-06T17:03:51.965Z,62.42
2019-02-06T17:06:52.433Z,62.92
2019-02-06T17:09:49.395Z,62.46
2019-02-06T17:12:22.244Z,62.55
2019-02-06T17:15:16.838Z,62.99
2019-02-06T17:18:01.060Z,62.78
2019-02-06T17:20:53.924Z,63.33
2019-02-06T17:23:47.520Z,63.05
2019-02-06T17:26:43.728Z,63.32
2019-02-06T17:29:24.731Z,63.32
2019-02-06T17:32:45.333Z,63.16
2019-02-06T17:35:23.557Z,63.26
2019-02-06T17:38:12.352Z,63.08
2019-02-06T17:41:03.984Z,63.32
2019-02-06T17:43:39.129Z,63.08
2019-02-06T17:46:23.297Z,62.91
2019-02-06T17:49:34.768Z,63.27
2019-02-06T17:52:32.008Z,63.18
2019-02-06T17:55:20.235Z,63.74
2019-02-06T17:57:48.968Z,63.71
2019-02-06T18:00:40.516Z,63.54
2019-02-06T18:03:12.894Z,63.94
2019-02-06T18:05:40.301Z,63.49
2019-02-06T18:08:08.065Z,63.67
2019-02-06T18:10:34.951Z,63.74
2019-02-06T18:13:02.291Z,63.64
2019-02-06T18:15:29.420Z,63.66
2019-02-06T18:17:58.195Z,63.96
2019-02-06T18:20:24.878Z,63.93
2019-02-06T18:22:53.378Z,64.03
2019-02-06T18:25:21.050Z,63.94
2019-02-06T18:27:47.495Z,63.97
2019-02-06T18:30:23.098Z,64.04
2019-02-06T18:32:49.809Z,64.11
2019-02-06T18:35:16.486Z,64.13
2019-02-06T18:37:50.118Z,64.49
2019-02-06T18:40:17.344Z,64.93
2019-02-06T18:42:47.503Z,65.21
2019-02-06T18:45:19.586Z,64.86
2019-02-06T18:47:46.385Z,64.57
2019-02-06T18:50:24.635Z,64.29
2019-02-06T18:52:51.189Z,64.63
2019-02-06T18:55:17.751Z,64.44
2019-02-06T18:57:44.481Z,64.41
2019-02-06T19:00:27.213Z,64.84
2019-02-06T19:02:53.958Z,64.83
2019-02-06T19:05:31.712Z,64.76
2019-02-06T19:08:00.449Z,65.11
2019-02-06T19:10:28.101Z,65.29
2019-02-06T19:12:54.765Z,65.02
2019-02-06T19:15:21.387Z,65.18
2019-02-06T19:17:48.245Z,65.21
2019-02-06T19:20:17.859Z,65.48
2019-02-06T19:22:45.626Z,65.77
2019-02-06T19:25:15.302Z,65.95
2019-02-06T19:27:43.325Z,65.97
2019-02-06T19:30:20.853Z,66.13
2019-02-06T19:32:47.503Z,65.62
2019-02-06T19:35:14.284Z,65.70
2019-02-06T19:37:40.677Z,66.04
2019-02-06T19:40:14.961Z,65.83
2019-02-06T19:42:41.670Z,65.96
2019-02-06T19:45:15.445Z,65.76
2019-02-06T19:47:41.976Z,65.83
2019-02-06T19:50:17.814Z,65.72
2019-02-06T19:52:44.540Z,65.76
2019-02-06T19:55:14.140Z,65.57
2019-02-06T19:57:40.744Z,65.47
2019-02-06T20:00:18.620Z,65.73
2019-02-06T20:02:45.893Z,65.82
2019-02-06T20:05:17.251Z,66.06
2019-02-06T20:07:47.904Z,66.11
2019-02-06T20:10:22.631Z,65.89
2019-02-06T20:12:52.529Z,65.84
2019-02-06T20:15:19.319Z,65.58
2019-02-06T20:17:46.236Z,65.78
2019-02-06T20:20:21.454Z,65.69
2019-02-06T20:22:49.950Z,65.79
2019-02-06T20:25:16.755Z,66.10
2019-02-06T20:27:43.394Z,66.24
2019-02-06T20:30:18.164Z,66.52
2019-02-06T20:32:44.808Z,66.52
2019-02-06T20:35:14.115Z,66.30
2019-02-06T20:37:40.752Z,66.51
2019-02-06T20:40:12.382Z,66.73
2019-02-06T20:42:38.712Z,66.77
2019-02-06T20:45:07.920Z,66.35
2019-02-06T20:47:34.738Z,66.40
2019-02-06T20:50:01.889Z,66.98
2019-02-06T20:52:28.691Z,67.02
2019-02-06T20:54:56.772Z,66.91
2019-02-06T20:57:25.364Z,66.77
2019-02-06T20:59:51.701Z,66.83
2019-02-06T21:02:18.350Z,67.19
2019-02-06T21:04:47.035Z,67.12
2019-02-06T21:07:13.070Z,66.86
2019-02-06T21:09:39.422Z,67.19
2019-02-06T21:12:07.236Z,67.69
2019-02-06T21:14:33.593Z,67.39
2019-02-06T21:17:00.217Z,67.42
2019-02-06T21:19:28.258Z,67.21
2019-02-06T21:21:54.910Z,67.37
2019-02-06T21:24:22.058Z,67.60
2019-02-06T21:26:49.972Z,67.57
2019-02-06T21:29:16.481Z,67.69
2019-02-06T21:31:42.860Z,67.74
2019-02-06T21:34:09.168Z,67.55
2019-02-06T21:36:37.177Z,67.40
2019-02-06T21:39:06.567Z,67.62
2019-02-06T21:41:34.533Z,67.34
2019-02-06T21:44:01.966Z,67.63
2019-02-06T21:46:28.598Z,67.26
2019-02-06T21:48:55.207Z,67.71
2019-02-06T21:51:21.853Z,67.70
2019-02-06T21:53:48.615Z,67.97
2019-02-06T21:56:15.268Z,67.50
2019-02-06T21:58:42.036Z,67.48
2019-02-06T22:01:08.536Z,67.91
2019-02-06T22:03:35.303Z,67.72
2019-02-06T22:06:02.010Z,68.02
2019-02-06T22:08:28.461Z,68.15
2019-02-06T22:10:54.787Z,68.20
2019-02-06T22:13:21.093Z,68.07
2019-02-06T22:15:47.855Z,67.65
2019-02-06T22:18:14.415Z,67.67
2019-02-06T22:20:40.732Z,68.09
2019-02-06T22:23:07.069Z,68.07
2019-02-06T22:25:33.420Z,67.88
2019-02-06T22:27:59.730Z,67.91
2019-02-06T22:30:28.376Z,67.64
2019-02-06T22:32:54.953Z,68.02
2019-02-06T22:35:21.762Z,68.12
2019-02-06T22:37:48.163Z,67.97
2019-02-06T22:40:18.366Z,68.10
2019-02-06T22:42:44.874Z,68.39
2019-02-06T22:45:24.127Z,68.51
2019-02-06T22:47:50.460Z,68.11
2019-02-06T22:50:23.608Z,68.22
2019-02-06T22:52:50.172Z,68.24
2019-02-06T22:55:16.695Z,68.06
2019-02-06T22:57:43.247Z,67.97
2019-02-06T23:00:49.251Z,68.22
2019-02-06T23:03:21.547Z,68.30
2019-02-06T23:05:47.886Z,68.48
2019-02-06T23:08:14.965Z,68.55
2019-02-06T23:10:41.335Z,68.31
2019-02-06T23:13:07.869Z,68.12
2019-02-06T23:15:35.590Z,68.00
2019-02-06T23:18:02.866Z,67.79
2019-02-06T23:20:30.609Z,67.83
2019-02-06T23:22:58.183Z,67.68
2019-02-06T23:25:24.812Z,67.84
2019-02-06T23:27:51.432Z,67.49
2019-02-06T23:30:17.725Z,67.37
2019-02-06T23:32:45.435Z,67.74
2019-02-06T23:35:11.839Z,67.93
2019-02-06T23:37:38.174Z,68.00
2019-02-06T23:40:12.780Z,67.69
2019-02-06T23:42:39.149Z,68.06
2019-02-06T23:45:08.797Z,68.23
2019-02-06T23:47:36.569Z,68.02
2019-02-06T23:50:08.539Z,68.06
2019-02-06T23:52:34.897Z,68.09
2019-02-06T23:55:01.290Z,68.33
2019-02-06T23:57:27.599Z,68.18
2019-02-06T23:59:53.940Z,68.20
